Antioch, Illinois
Current Conditions -  °F | °C
As of 5:53 AM on Thursday 23 Oct 2014 (Local Time) from KENW Reporting Station
Haze Haze  
Wind Chill:   Ceiling: Unl
Heat Index:   Visibility: 5mi
Dew Point:   Wind: 5mph
Humidity: 93%   Direction: 190°S
Pressure: 30.21"   Gusts: NA
Location:  42.48°N, 88.1°W
Report Text: KENW 231053Z AUTO 19004KT 5SM BR CLR 02/01 A3021 RMK AO2 SLP236 T00220011
Loading
Personal Weather Stations






























Interactive Weather Map New forecast layout! Learn more

10-Day Weather Forecast

Advertisements
Track Severe Weather on mobile